1869 NOT_NAMED (1869021S21053)


IBTrACS version v04r00. Visit IBTrACS website for data access.
Please direct all questions to the IBTrACS Q and A forum

Storm track - Intensity - Wind Radii - Intensity Data - Source Data - All data

Summary Information

Storm ID 1869021S21053
Start Jan 21 06Z
End Jan 27 06Z
ATCF IDs
Track status Best track data.

Storm track plot

Map of storm track

Intensity plots

No Intensity information for this storm


Radial wind information

No radial wind information for this storm


Position and Intensity Table

BASIN ISO_TIME_________ NATURE LAT LON
degrees north degrees east
SI 1869-01-21 06:00:00 NR -21.20 52.95
SI 09:00:00 NR -21.31 53.04
SI 12:00:00 NR -21.41 53.13
SI 15:00:00 NR -21.51 53.21
SI 18:00:00 NR -21.61 53.29
SI 21:00:00 NR -21.70 53.36
SI 1869-01-22 00:00:00 NR -21.78 53.42
SI 03:00:00 NR -21.86 53.48
SI 06:00:00 NR -21.95 53.55
SI 09:00:00 NR -22.04 53.63
SI 12:00:00 NR -22.14 53.71
SI 15:00:00 NR -22.23 53.79
SI 18:00:00 NR -22.32 53.88
SI 21:00:00 NR -22.42 53.95
SI 1869-01-23 00:00:00 NR -22.51 54.03
SI 03:00:00 NR -22.60 54.11
SI 06:00:00 NR -22.70 54.20
SI 09:00:00 NR -22.80 54.29
SI 12:00:00 NR -22.91 54.39
SI 15:00:00 NR -23.02 54.49
SI 18:00:00 NR -23.13 54.60
SI 21:00:00 NR -23.25 54.72
SI 1869-01-24 00:00:00 NR -23.36 54.84
SI 03:00:00 NR -23.48 54.96
SI 06:00:00 NR -23.60 55.10
SI 09:00:00 NR -23.73 55.24
SI 12:00:00 NR -23.86 55.39
SI 15:00:00 NR -24.00 55.54
SI 18:00:00 NR -24.13 55.69
SI 21:00:00 NR -24.25 55.84
SI 1869-01-25 00:00:00 NR -24.33 55.88
SI 03:00:00 NR -24.39 55.87
SI 06:00:00 NR -24.42 55.82
SI 09:00:00 NR -24.42 55.69
SI 12:00:00 NR -24.52 55.90
SI 15:00:00 NR -24.63 56.11
SI 18:00:00 NR -24.72 56.32
SI 21:00:00 NR -24.80 56.53
SI 1869-01-26 00:00:00 NR -24.88 56.74
SI 03:00:00 NR -24.94 56.93
SI 06:00:00 NR -25.00 57.10
SI 09:00:00 NR -25.05 57.25
SI 12:00:00 NR -25.08 57.38
SI 15:00:00 NR -25.12 57.49
SI 18:00:00 NR -25.14 57.59
SI 21:00:00 NR -25.16 57.68
SI 1869-01-27 00:00:00 NR -25.17 57.76
SI 03:00:00 NR -25.19 57.83
SI 06:00:00 NR -25.20 57.90

Source Information

Agency Information
USA
TOKYO
CMA
HKO
NEWDELHI
REUNION WMO-Best-Tracks.txt:Line=762:xxxx869112
BOM
NADI
WELLINGTON
DS824
TD9636 cons_worldwide_trop_cyclone_18710101-19891231-005:Line=1022
TD9635
NEUMANN
MLC

All available IBTrACS Data

SEASON BASIN SUBBASIN ISO_TIME_________ NATURE LAT LON WMO AGENCY DIST2LAND LANDFALL IFLAG USA SSHS REUNION LAT REUNION LON REUNION TYPE REUNION TNUM TD9636 LAT TD9636 LON TD9636 STAGE STORM SPEED STORM DIR
Year degrees north degrees east km km 1 degrees north degrees east 1 degrees north degrees east kts degrees
1869 SI MM 1869-01-21 06:00:00 NR -21.20 52.95 reunion 228 228 _____O____O___ -1 -20.90 52.50 99 9.90 -21.50 53.40 7 3 144
1869 SI MM 09:00:00 NR -21.31 53.04 229 218 _____P____P___ -1 -21.00 52.60 99 -21.61 53.48 7 3 142
1869 SI MM 12:00:00 NR -21.41 53.13 220 209 _____P____P___ -1 -21.11 52.69 99 -21.71 53.56 7 3 142
1869 SI MM 15:00:00 NR -21.51 53.21 211 204 _____P____P___ -1 -21.21 52.78 99 -21.81 53.64 7 2 143
1869 SI MM 18:00:00 NR -21.61 53.29 204 198 _____P____O___ -1 -21.31 52.87 99 -21.90 53.70 7 2 143
1869 SI MM 21:00:00 NR -21.70 53.36 198 198 _____P____P___ -1 -21.41 52.96 99 -21.98 53.75 7 2 145
1869 SI MM 1869-01-22 00:00:00 NR -21.78 53.42 202 192 _____P____P___ -1 -21.51 53.05 99 -22.05 53.79 7 2 145
1869 SI MM 03:00:00 NR -21.86 53.48 197 197 _____P____P___ -1 -21.61 53.13 99 -22.12 53.84 7 2 146
1869 SI MM 06:00:00 NR -21.95 53.55 reunion 188 192 _____O____O___ -1 -21.70 53.20 99 9.90 -22.20 53.90 7 2 144
1869 SI MM 09:00:00 NR -22.04 53.63 192 187 _____P____P___ -1 -21.79 53.27 99 -22.29 53.99 7 2 141
1869 SI MM 12:00:00 NR -22.14 53.71 187 184 _____P____P___ -1 -21.88 53.33 99 -22.39 54.08 7 2 141
1869 SI MM 15:00:00 NR -22.23 53.79 184 182 _____P____P___ -1 -21.96 53.39 99 -22.50 54.19 7 2 141
1869 SI MM 18:00:00 NR -22.32 53.88 182 182 _____P____O___ -1 -22.05 53.45 99 -22.60 54.30 7 2 141
1869 SI MM 21:00:00 NR -22.42 53.95 181 181 _____P____P___ -1 -22.14 53.51 99 -22.70 54.40 7 2 142
1869 SI MM 1869-01-23 00:00:00 NR -22.51 54.03 189 182 _____P____P___ -1 -22.22 53.57 99 -22.79 54.49 7 2 141
1869 SI MM 03:00:00 NR -22.60 54.11 190 184 _____P____P___ -1 -22.31 53.63 99 -22.89 54.59 7 2 140
1869 SI MM 06:00:00 NR -22.70 54.20 reunion 193 193 _____O____O___ -1 -22.40 53.70 99 9.90 -23.00 54.70 7 3 140
1869 SI MM 09:00:00 NR -22.80 54.29 196 196 _____P____P___ -1 -22.49 53.77 99 -23.12 54.81 7 3 140
1869 SI MM 12:00:00 NR -22.91 54.39 201 201 _____P____P___ -1 -22.58 53.84 99 -23.24 54.94 7 3 139
1869 SI MM 15:00:00 NR -23.02 54.49 207 207 _____P____P___ -1 -22.67 53.92 99 -23.37 55.06 7 3 138
1869 SI MM 18:00:00 NR -23.13 54.60 213 213 _____P____O___ -1 -22.77 54.01 99 -23.50 55.20 7 3 138
1869 SI MM 21:00:00 NR -23.25 54.72 221 221 _____P____P___ -1 -22.87 54.09 99 -23.62 55.34 7 3 136
1869 SI MM 1869-01-24 00:00:00 NR -23.36 54.84 238 234 _____P____P___ -1 -22.97 54.19 99 -23.75 55.49 7 3 136
1869 SI MM 03:00:00 NR -23.48 54.96 242 242 _____P____P___ -1 -23.08 54.29 99 -23.87 55.64 7 3 135
1869 SI MM 06:00:00 NR -23.60 55.10 reunion 251 249 _____O____O___ -1 -23.20 54.40 99 9.90 -24.00 55.80 7 4 135
1869 SI MM 09:00:00 NR -23.73 55.24 260 258 _____P____P___ -1 -23.33 54.51 99 -24.13 55.97 7 4 135
1869 SI MM 12:00:00 NR -23.86 55.39 280 279 _____P____P___ -1 -23.47 54.63 99 -24.26 56.15 7 4 134
1869 SI MM 15:00:00 NR -24.00 55.54 290 290 _____P____P___ -1 -23.61 54.75 99 -24.38 56.33 7 4 134
1869 SI MM 18:00:00 NR -24.13 55.69 301 301 _____P____O___ -1 -23.76 54.88 99 -24.50 56.50 7 4 133
1869 SI MM 21:00:00 NR -24.25 55.84 324 324 _____P____P___ -1 -23.90 55.02 99 -24.61 56.66 7 3 140
1869 SI MM 1869-01-25 00:00:00 NR -24.33 55.88 325 325 _____P____P___ -1 -24.04 55.17 99 -24.71 56.81 7 1 162
1869 SI MM 03:00:00 NR -24.39 55.87 336 335 _____P____P___ -1 -24.18 55.33 99 -24.81 56.96 7 1 208
1869 SI MM 06:00:00 NR -24.42 55.82 reunion 335 335 _____O____O___ -1 -24.30 55.50 99 9.90 -24.90 57.10 7 2 260
1869 SI MM 09:00:00 NR -24.42 55.69 335 335 _____P________ -1 -24.42 55.69 99 7 1 147
1869 SI MM 12:00:00 NR -24.52 55.90 347 347 _____P________ -1 -24.52 55.90 99 7 4 119
1869 SI MM 15:00:00 NR -24.63 56.11 361 361 _____P________ -1 -24.63 56.11 99 7 4 117
1869 SI MM 18:00:00 NR -24.72 56.32 375 375 _____P________ -1 -24.72 56.32 99 4 115
1869 SI MM 21:00:00 NR -24.80 56.53 391 391 _____P________ -1 -24.80 56.53 99 4 113
1869 SI MM 1869-01-26 00:00:00 NR -24.88 56.74 407 407 _____P________ -1 -24.88 56.74 99 4 111
1869 SI MM 03:00:00 NR -24.94 56.93 413 413 _____P________ -1 -24.94 56.93 99 4 110
1869 SI MM 06:00:00 NR -25.00 57.10 reunion 430 430 _____O________ -1 -25.00 57.10 99 9.90 3 109
1869 SI MM 09:00:00 NR -25.05 57.25 438 438 _____P________ -1 -25.05 57.25 99 3 108
1869 SI MM 12:00:00 NR -25.08 57.38 452 452 _____P________ -1 -25.08 57.38 99 2 107
1869 SI MM 15:00:00 NR -25.12 57.49 456 456 _____P________ -1 -25.12 57.49 99 2 106
1869 SI MM 18:00:00 NR -25.14 57.59 461 461 _____P________ -1 -25.14 57.59 99 2 105
1869 SI MM 21:00:00 NR -25.16 57.68 475 475 _____P________ -1 -25.16 57.68 99 2 103
1869 SI MM 1869-01-27 00:00:00 NR -25.17 57.76 480 480 _____P________ -1 -25.17 57.76 99 1 102
1869 SI MM 03:00:00 NR -25.19 57.83 480 480 _____P________ -1 -25.19 57.83 99 1 101
1869 SI MM 06:00:00 NR -25.20 57.90 reunion 485 _____O________ -1 -25.20 57.90 99 9.90 1 100